Time;durP1;ratioP1;P1;durP2;ratioP2;P2;SDS_P1;SDS_P2;PMS_P1;PMS_P2;Temp;Humidity;BMP_temperature;BMP_pressure;BME280_temperature;BME280_humidity;BME280_pressure;Samples;Min_cycle;Max_cycle;Signal;HPM_P1;HPM_P2
2022/03/26 00:02:08;;;;;;;28.40;17.17;;;;;;;8.25;62.92;101763.36;1644400;86;21922;-76
2022/03/26 00:04:35;;;;;;;31.00;17.48;;;;;;;8.23;62.98;101747.96;1640312;86;21601;-77
2022/03/26 00:07:02;;;;;;;33.20;16.67;;;;;;;8.21;63.09;101751.81;1653034;86;21105;-77
2022/03/26 00:09:28;;;;;;;33.73;17.37;;;;;;;8.19;63.16;101739.03;1638830;86;21138;-77
2022/03/26 00:11:56;;;;;;;32.53;17.65;;;;;;;8.19;63.29;101742.97;1631607;87;21144;-77
2022/03/26 00:14:22;;;;;;;30.05;17.32;;;;;;;8.18;63.33;101744.70;1638507;87;21805;-77
2022/03/26 00:16:49;;;;;;;27.07;16.85;;;;;;;8.21;63.45;101738.70;1623756;88;21164;-77
2022/03/26 00:19:16;;;;;;;32.75;17.60;;;;;;;8.21;63.46;101751.81;1623518;88;21343;-77
2022/03/26 00:21:43;;;;;;;34.88;18.73;;;;;;;8.19;63.56;101742.97;1595748;89;21274;-76
2022/03/26 00:24:09;;;;;;;31.95;17.17;;;;;;;8.20;63.59;101742.13;1629011;87;21101;-76
2022/03/26 00:26:36;;;;;;;30.00;17.00;;;;;;;8.19;63.65;101736.41;1623738;88;22500;-76
2022/03/26 00:29:02;;;;;;;29.98;18.07;;;;;;;8.17;63.69;101736.33;1620824;87;21746;-76
2022/03/26 00:31:30;;;;;;;28.62;17.50;;;;;;;8.14;63.75;101728.29;1618070;86;21131;-75
2022/03/26 00:33:56;;;;;;;31.25;17.15;;;;;;;8.14;63.85;101728.72;1607544;88;21177;-76
2022/03/26 00:36:23;;;;;;;28.77;16.97;;;;;;;8.15;63.93;101723.55;1629335;86;21113;-76
2022/03/26 00:38:50;;;;;;;28.07;17.65;;;;;;;8.18;64.06;101721.48;1626551;86;21984;-76
2022/03/26 00:41:16;;;;;;;31.85;19.60;;;;;;;8.24;64.10;101711.70;1634073;86;21606;-76
2022/03/26 00:43:43;;;;;;;28.85;18.40;;;;;;;8.26;64.08;101711.37;1619654;86;21165;-76
2022/03/26 00:46:11;;;;;;;28.05;18.02;;;;;;;8.27;64.12;101702.27;1633354;86;21069;-76
2022/03/26 00:48:38;;;;;;;30.10;18.17;;;;;;;8.28;64.08;101696.22;1615837;86;22299;-76
2022/03/26 00:51:04;;;;;;;32.73;18.80;;;;;;;8.29;64.09;101696.69;1622541;86;21812;-77
2022/03/26 00:53:31;;;;;;;33.45;19.77;;;;;;;8.27;64.13;101684.33;1619949;86;21131;-76
2022/03/26 00:55:58;;;;;;;34.92;19.00;;;;;;;8.25;64.22;101681.63;1591825;88;21098;-76
2022/03/26 00:58:24;;;;;;;35.38;19.25;;;;;;;8.26;64.39;101679.51;1632141;86;21109;-76
2022/03/26 01:00:51;;;;;;;35.73;19.15;;;;;;;8.26;64.33;101678.58;1629446;86;21150;-75
2022/03/26 01:03:18;;;;;;;31.80;19.35;;;;;;;8.26;64.46;101681.20;1633329;86;21775;-76
2022/03/26 01:05:45;;;;;;;32.75;18.80;;;;;;;8.27;64.52;101686.53;1633234;86;21085;-76
2022/03/26 01:08:12;;;;;;;31.27;18.98;;;;;;;8.27;64.54;101674.73;1633392;86;21092;-76
2022/03/26 01:10:39;;;;;;;33.63;19.73;;;;;;;8.28;64.65;101675.23;1623406;86;21107;-76
2022/03/26 01:13:05;;;;;;;31.52;19.23;;;;;;;8.31;64.83;101674.05;1622602;86;22344;-76
2022/03/26 01:15:32;;;;;;;32.23;19.57;;;;;;;8.34;64.74;101661.09;1622253;86;22588;-76
2022/03/26 01:17:58;;;;;;;31.30;18.07;;;;;;;8.37;64.87;101670.83;1602372;87;21112;-76
2022/03/26 01:20:25;;;;;;;35.52;19.27;;;;;;;8.40;64.81;101683.22;1622049;86;21144;-76
2022/03/26 01:22:52;;;;;;;28.92;17.90;;;;;;;8.41;64.85;101687.23;1634794;86;21622;-76
2022/03/26 01:25:18;;;;;;;31.10;18.77;;;;;;;8.41;64.90;101687.63;1635664;86;21093;-76
2022/03/26 01:27:45;;;;;;;30.88;16.80;;;;;;;8.41;64.96;101693.79;1632947;86;22851;-76
2022/03/26 01:30:13;;;;;;;27.02;17.32;;;;;;;8.42;65.05;101688.16;1617160;86;21092;-76
2022/03/26 01:32:39;;;;;;;29.52;17.57;;;;;;;8.42;65.05;101689.47;1636350;86;21014;-76
2022/03/26 01:35:07;;;;;;;28.30;17.73;;;;;;;8.40;65.11;101681.91;1620365;86;21666;-76
2022/03/26 01:37:33;;;;;;;26.37;15.88;;;;;;;8.41;65.21;101682.38;1624220;86;21190;-76
2022/03/26 01:40:00;;;;;;;27.37;18.12;;;;;;;8.42;65.34;101685.53;1633073;86;21793;-76
2022/03/26 01:42:27;;;;;;;29.32;17.85;;;;;;;8.43;65.43;101682.06;1634420;87;22132;-76
2022/03/26 01:44:53;;;;;;;28.92;17.60;;;;;;;8.44;65.42;101683.88;1633391;86;21068;-76
2022/03/26 01:47:20;;;;;;;27.20;17.95;;;;;;;8.45;65.62;101678.71;1622583;86;21120;-76
2022/03/26 01:49:47;;;;;;;27.48;16.48;;;;;;;8.45;65.53;101671.27;1620240;86;21092;-76
2022/03/26 01:52:14;;;;;;;29.82;17.60;;;;;;;8.42;65.58;101675.04;1622775;86;21778;-76
2022/03/26 01:54:41;;;;;;;28.47;16.42;;;;;;;8.41;65.75;101672.80;1622423;86;21078;-76
2022/03/26 01:57:10;;;;;;;26.50;17.27;;;;;;;8.40;65.84;101664.42;1635169;86;21190;-76
2022/03/26 01:59:37;;;;;;;35.15;17.40;;;;;;;8.38;65.87;101663.03;1621606;86;22104;-76
2022/03/26 02:02:04;;;;;;;27.00;18.10;;;;;;;8.34;65.85;101659.78;1623712;86;21105;-76
2022/03/26 02:04:34;;;;;;;28.85;17.35;;;;;;;8.31;65.96;101658.31;1622104;86;22635;-76
2022/03/26 02:07:00;;;;;;;31.30;17.15;;;;;;;8.30;66.08;101656.95;1620818;86;21086;-76
2022/03/26 02:09:33;;;;;;;29.77;16.20;;;;;;;8.28;66.24;101633.69;1598232;86;21117;-76
2022/03/26 02:11:55;;;;;;;30.12;17.40;;;;;;;8.21;66.34;101634.20;1621154;86;21106;-76
2022/03/26 02:14:24;;;;;;;26.12;15.60;;;;;;;8.25;66.32;101635.73;1621639;86;21084;-77
2022/03/26 02:16:50;;;;;;;23.77;15.85;;;;;;;8.22;66.50;101626.42;1639148;85;23560;-76
2022/03/26 02:19:18;;;;;;;27.37;16.67;;;;;;;8.21;66.57;101621.09;1635249;86;21081;-76
2022/03/26 02:21:47;;;;;;;26.62;17.57;;;;;;;8.17;66.66;101619.63;1619813;86;21098;-76
2022/03/26 02:24:13;;;;;;;29.40;16.90;;;;;;;8.14;66.69;101612.91;1622158;87;21091;-76
2022/03/26 02:26:39;;;;;;;29.23;16.73;;;;;;;8.12;66.80;101601.44;1620946;86;21293;-76
2022/03/26 02:29:11;;;;;;;25.08;15.95;;;;;;;8.10;66.86;101595.65;1616212;86;21763;-76
2022/03/26 02:31:38;;;;;;;29.48;15.03;;;;;;;8.06;67.00;101594.60;1617522;86;21080;-76
2022/03/26 02:34:05;;;;;;;29.50;15.65;;;;;;;8.08;67.28;101574.59;1619308;86;21110;-76
2022/03/26 02:36:32;;;;;;;25.20;15.72;;;;;;;8.09;67.24;101572.86;1612160;86;21731;-76
2022/03/26 02:38:59;;;;;;;30.75;15.18;;;;;;;8.08;67.36;101574.59;1635331;86;21132;-76
2022/03/26 02:41:27;;;;;;;32.30;16.55;;;;;;;8.10;67.48;101561.56;1633431;86;21866;-76
2022/03/26 02:43:53;;;;;;;29.52;16.35;;;;;;;8.11;67.46;101562.06;1635502;86;21586;-76
2022/03/26 02:46:20;;;;;;;25.15;14.95;;;;;;;8.07;67.58;101550.52;1633481;86;21113;-76
2022/03/26 02:48:47;;;;;;;24.95;14.33;;;;;;;8.19;67.69;101559.38;1616515;86;21176;-76
2022/03/26 02:51:13;;;;;;;30.05;16.20;;;;;;;8.12;67.71;101542.44;1631589;86;21339;-76
2022/03/26 02:53:40;;;;;;;36.25;16.48;;;;;;;8.25;67.90;101563.59;1633679;86;21737;-76
2022/03/26 02:56:07;;;;;;;23.20;14.38;;;;;;;8.27;67.83;101551.87;1632441;86;21109;-76
2022/03/26 02:58:33;;;;;;;27.30;15.05;;;;;;;8.28;67.74;101557.62;1622215;86;21116;-76
2022/03/26 03:01:00;;;;;;;26.05;14.25;;;;;;;8.25;67.70;101559.66;1634686;86;21713;-76
2022/03/26 03:03:27;;;;;;;21.27;14.50;;;;;;;8.24;67.91;101550.02;1633785;86;21363;-76
2022/03/26 03:05:54;;;;;;;25.80;14.30;;;;;;;8.21;67.84;101532.81;1633881;86;21590;-76
2022/03/26 03:08:22;;;;;;;22.45;14.47;;;;;;;8.08;67.89;101505.11;1633575;86;21149;-76
2022/03/26 03:10:49;;;;;;;26.40;14.95;;;;;;;8.18;67.88;101511.67;1641339;86;21097;-76
2022/03/26 03:13:21;;;;;;;28.52;14.70;;;;;;;8.17;68.01;101516.03;1633513;86;21137;-76
2022/03/26 03:15:44;;;;;;;21.55;13.85;;;;;;;8.20;68.05;101496.02;1621578;86;21086;-76
2022/03/26 03:18:11;;;;;;;20.55;13.55;;;;;;;8.22;68.09;101490.04;1623712;86;21805;-77
2022/03/26 03:20:38;;;;;;;22.87;13.45;;;;;;;8.24;68.06;101484.45;1616354;86;21156;-76
2022/03/26 03:23:05;;;;;;;22.98;12.98;;;;;;;8.25;68.02;101488.84;1616635;86;21111;-76
2022/03/26 03:25:32;;;;;;;23.25;13.08;;;;;;;8.25;68.08;101505.00;1625614;86;21598;-76
2022/03/26 03:27:58;;;;;;;20.72;13.53;;;;;;;8.24;68.12;101507.13;1622891;86;21108;-76
2022/03/26 03:30:26;;;;;;;24.50;13.15;;;;;;;8.24;68.21;101506.74;1622842;86;21785;-76
2022/03/26 03:32:53;;;;;;;23.52;13.72;;;;;;;8.24;68.26;101510.67;1614073;86;21056;-77
2022/03/26 03:35:21;;;;;;;23.83;13.40;;;;;;;8.25;68.38;101522.95;1621043;86;21069;-76
2022/03/26 03:37:47;;;;;;;24.07;13.53;;;;;;;8.18;68.46;101494.63;1622527;86;21118;-77
2022/03/26 03:40:14;;;;;;;23.30;12.70;;;;;;;8.26;68.42;101509.02;1616941;86;21101;-76
2022/03/26 03:42:41;;;;;;;21.05;12.85;;;;;;;8.23;68.50;101518.05;1655309;84;22604;-76
2022/03/26 03:45:09;;;;;;;21.40;12.45;;;;;;;8.21;68.50;101517.08;1633587;86;21103;-77
2022/03/26 03:47:37;;;;;;;19.90;12.03;;;;;;;8.20;68.48;101535.36;1634551;86;21157;-77
2022/03/26 03:50:05;;;;;;;21.93;13.30;;;;;;;8.16;68.80;101537.86;1634111;87;21168;-76
2022/03/26 03:52:32;;;;;;;18.20;11.50;;;;;;;8.13;68.84;101522.39;1622976;86;21129;-76
2022/03/26 03:54:59;;;;;;;21.70;12.73;;;;;;;8.11;68.85;101522.31;1609068;86;22055;-76
2022/03/26 03:57:25;;;;;;;23.70;12.98;;;;;;;8.10;68.98;101537.54;1591828;88;21678;-76
2022/03/26 03:59:52;;;;;;;22.75;12.98;;;;;;;8.08;68.95;101519.95;1620748;86;21025;-76
2022/03/26 04:02:19;;;;;;;23.42;13.18;;;;;;;8.06;69.33;101529.05;1624150;86;21088;-76
2022/03/26 04:04:45;;;;;;;18.02;11.80;;;;;;;8.06;70.21;101534.72;1578905;88;21112;-76
2022/03/26 04:07:12;;;;;;;18.32;12.47;;;;;;;8.08;69.67;101531.33;1619257;86;21765;-77
2022/03/26 04:09:38;;;;;;;18.10;12.45;;;;;;;8.09;69.44;101527.89;1623926;86;21119;-76
2022/03/26 04:12:07;;;;;;;28.17;13.08;;;;;;;8.12;69.75;101561.22;1609943;86;21115;-76
2022/03/26 04:14:35;;;;;;;19.50;12.95;;;;;;;8.18;69.83;101539.21;1610326;86;21365;-77
2022/03/26 04:17:02;;;;;;;25.35;13.20;;;;;;;8.24;69.75;101541.22;1614934;86;21096;-77
2022/03/26 04:19:28;;;;;;;23.35;12.50;;;;;;;8.28;69.73;101530.97;1623244;86;21779;-77
2022/03/26 04:21:56;;;;;;;23.18;12.75;;;;;;;8.35;69.84;101538.30;1635100;86;21050;-76
2022/03/26 04:24:23;;;;;;;25.43;12.98;;;;;;;8.42;69.69;101537.30;1637274;86;21581;-76
2022/03/26 04:26:50;;;;;;;18.20;12.37;;;;;;;8.44;69.63;101533.91;1634654;86;21096;-76
2022/03/26 04:29:17;;;;;;;22.75;13.30;;;;;;;8.48;69.56;101533.64;1629059;86;21149;-76
2022/03/26 04:31:45;;;;;;;21.17;12.50;;;;;;;8.51;69.71;101529.86;1596370;88;21834;-76
2022/03/26 04:34:13;;;;;;;25.77;14.07;;;;;;;8.54;69.61;101537.45;1592630;88;21640;-76
2022/03/26 04:36:39;;;;;;;24.98;13.90;;;;;;;8.57;69.52;101545.87;1635132;87;21050;-77
2022/03/26 04:39:06;;;;;;;20.40;12.85;;;;;;;8.60;69.50;101551.70;1623435;86;21104;-77
2022/03/26 04:41:33;;;;;;;24.65;14.05;;;;;;;8.64;69.57;101557.56;1618094;88;21108;-77
2022/03/26 04:43:59;;;;;;;22.25;13.58;;;;;;;8.66;69.55;101556.80;1621045;88;22031;-76
2022/03/26 04:46:26;;;;;;;21.17;13.28;;;;;;;8.68;69.46;101551.20;1620902;88;21654;-76
2022/03/26 04:48:53;;;;;;;20.12;11.63;;;;;;;8.70;69.48;101556.09;1622212;87;22421;-76
2022/03/26 04:51:19;;;;;;;25.00;12.93;;;;;;;8.72;69.46;101543.05;1622276;88;21089;-77
2022/03/26 04:53:46;;;;;;;23.90;14.10;;;;;;;8.74;69.36;101555.83;1619370;88;21119;-77
2022/03/26 04:56:14;;;;;;;21.37;13.45;;;;;;;8.76;69.38;101559.41;1622533;88;21749;-76
2022/03/26 04:58:40;;;;;;;21.45;12.78;;;;;;;8.79;69.44;101573.11;1620903;88;21049;-81
2022/03/26 05:01:07;;;;;;;30.72;15.15;;;;;;;8.78;69.36;101555.55;1620409;87;21158;-76
2022/03/26 05:03:34;;;;;;;19.87;12.95;;;;;;;8.80;69.32;101573.16;1618865;88;21088;-77
2022/03/26 05:06:00;;;;;;;27.52;15.03;;;;;;;8.77;69.60;101584.85;1617447;88;21100;-77
2022/03/26 05:08:27;;;;;;;23.80;13.58;;;;;;;8.75;69.54;101586.09;1621286;88;21762;-77
2022/03/26 05:10:54;;;;;;;20.08;12.82;;;;;;;8.74;69.61;101584.28;1619117;88;21726;-77
2022/03/26 05:13:20;;;;;;;22.35;12.80;;;;;;;8.77;69.60;101588.79;1620341;86;21489;-76
2022/03/26 05:15:47;;;;;;;25.48;15.20;;;;;;;8.81;69.68;101610.83;1615399;88;21090;-77
2022/03/26 05:18:14;;;;;;;24.18;13.65;;;;;;;8.83;69.63;101611.80;1616094;86;21114;-76
2022/03/26 05:20:41;;;;;;;29.98;14.45;;;;;;;8.88;69.61;101597.16;1621458;88;21789;-78
2022/03/26 05:23:09;;;;;;;22.67;13.70;;;;;;;8.88;69.58;101601.99;1615227;87;21153;-78
2022/03/26 05:25:36;;;;;;;23.67;14.05;;;;;;;8.90;69.59;101606.89;1620647;88;21179;-77
2022/03/26 05:28:03;;;;;;;21.40;13.93;;;;;;;8.94;69.66;101611.88;1623326;87;21621;-78
2022/03/26 05:30:29;;;;;;;20.25;13.05;;;;;;;8.95;69.67;101627.70;1619652;88;21191;-77
2022/03/26 05:32:56;;;;;;;19.23;12.78;;;;;;;8.97;69.71;101625.55;1617210;86;22552;-76
2022/03/26 05:35:23;;;;;;;21.12;13.98;;;;;;;9.00;69.72;101617.39;1622310;87;21712;-80
2022/03/26 05:37:50;;;;;;;21.10;13.25;;;;;;;9.08;69.63;101622.56;1622029;87;21072;-80
2022/03/26 05:40:18;;;;;;;23.87;13.72;;;;;;;9.17;69.57;101623.41;1622606;87;21096;-80
2022/03/26 05:42:47;;;;;;;26.62;14.07;;;;;;;9.20;69.39;101618.72;1622647;87;21127;-79
2022/03/26 05:45:14;;;;;;;21.35;13.68;;;;;;;9.23;69.35;101629.34;1608068;86;22639;-79
2022/03/26 05:47:41;;;;;;;21.35;13.88;;;;;;;9.12;69.21;101614.41;1610067;86;21116;-79
2022/03/26 05:50:10;;;;;;;29.25;14.47;;;;;;;9.20;69.28;101634.48;1636144;86;21088;-80
2022/03/26 05:52:37;;;;;;;25.90;14.65;;;;;;;9.19;69.36;101633.56;1631973;86;21088;-82
2022/03/26 05:55:04;;;;;;;20.17;13.65;;;;;;;9.17;69.26;101627.34;1618747;86;21085;-77
2022/03/26 05:57:33;;;;;;;21.97;13.70;;;;;;;9.20;69.29;101633.17;1633490;86;21763;-80
2022/03/26 06:00:00;;;;;;;25.23;15.48;;;;;;;9.26;69.25;101641.31;1619928;86;21086;-80
2022/03/26 06:02:27;;;;;;;21.97;14.10;;;;;;;9.32;69.19;101632.38;1624274;86;21157;-76
2022/03/26 06:04:54;;;;;;;21.48;14.10;;;;;;;9.39;69.13;101633.56;1622806;87;21122;-76
2022/03/26 06:07:20;;;;;;;25.30;14.40;;;;;;;9.49;69.10;101643.63;1608299;89;21124;-77
2022/03/26 06:09:47;;;;;;;19.77;13.93;;;;;;;9.54;68.95;101650.00;1625582;88;23150;-77
2022/03/26 06:12:14;;;;;;;29.00;16.07;;;;;;;9.63;68.95;101654.73;1636237;87;21081;-76
2022/03/26 06:14:41;;;;;;;24.10;14.58;;;;;;;9.75;68.84;101656.59;1615311;86;21141;-77
2022/03/26 06:17:09;;;;;;;25.68;13.98;;;;;;;9.86;68.66;101660.58;1623721;88;22378;-77
2022/03/26 06:19:36;;;;;;;21.57;14.03;;;;;;;9.93;68.40;101655.17;1627558;87;21129;-77
2022/03/26 06:22:04;;;;;;;19.50;13.62;;;;;;;9.98;68.37;101667.19;1634673;87;21773;-77
2022/03/26 06:24:31;;;;;;;22.40;14.00;;;;;;;10.02;68.26;101661.22;1637172;87;21085;-77
2022/03/26 06:26:57;;;;;;;19.15;13.25;;;;;;;10.08;68.12;101660.18;1623508;86;21107;-77
2022/03/26 06:29:24;;;;;;;17.25;11.85;;;;;;;10.14;68.01;101669.63;1624254;87;21113;-77
2022/03/26 06:31:51;;;;;;;23.75;14.38;;;;;;;10.20;67.89;101673.82;1597611;88;21132;-77
2022/03/26 06:34:18;;;;;;;18.25;12.33;;;;;;;10.28;67.77;101672.81;1642991;87;22616;-77
2022/03/26 06:36:44;;;;;;;18.42;12.73;;;;;;;10.35;67.75;101681.48;1624759;87;21197;-77
2022/03/26 06:39:11;;;;;;;22.10;13.62;;;;;;;10.50;67.71;101678.15;1624181;86;21190;-77
2022/03/26 06:41:41;;;;;;;19.07;12.05;;;;;;;10.57;67.27;101688.52;1624203;86;21117;-77
2022/03/26 06:44:08;;;;;;;20.80;12.00;;;;;;;10.56;67.00;101691.09;1622475;86;21137;-77
2022/03/26 06:46:36;;;;;;;17.55;11.95;;;;;;;10.49;66.98;101695.19;1624459;86;21128;-77
2022/03/26 06:49:03;;;;;;;19.98;11.33;;;;;;;10.40;66.73;101698.77;1621282;86;21124;-77
2022/03/26 06:51:31;;;;;;;19.87;11.90;;;;;;;10.33;66.90;101703.33;1624610;86;21618;-77
2022/03/26 06:53:59;;;;;;;18.85;13.35;;;;;;;10.31;66.91;101702.83;1623867;86;21745;-77
2022/03/26 06:56:25;;;;;;;20.68;11.40;;;;;;;10.31;66.87;101700.20;1624268;86;21159;-77
2022/03/26 06:58:52;;;;;;;20.30;11.50;;;;;;;10.36;66.84;101705.66;1624374;86;21859;-77
2022/03/26 07:01:18;;;;;;;21.17;12.40;;;;;;;10.43;66.91;101706.80;1624236;86;21095;-77
2022/03/26 07:03:47;;;;;;;18.62;11.63;;;;;;;10.53;66.90;101714.25;1622741;86;21112;-77
2022/03/26 07:06:15;;;;;;;21.48;12.07;;;;;;;10.67;66.74;101706.89;1625101;86;21093;-77
2022/03/26 07:08:42;;;;;;;17.30;11.43;;;;;;;10.84;66.71;101720.73;1627581;86;21117;-77
2022/03/26 07:11:09;;;;;;;18.25;12.18;;;;;;;11.03;66.34;101721.91;1620138;86;22259;-77
2022/03/26 07:13:36;;;;;;;15.88;11.00;;;;;;;11.13;66.06;101727.54;1618402;86;21400;-77
2022/03/26 07:16:03;;;;;;;19.25;11.33;;;;;;;11.20;65.85;101730.89;1608494;86;21165;-77
2022/03/26 07:18:29;;;;;;;19.25;11.33;;;;;;;11.23;65.33;101733.23;1624729;86;21177;-77
2022/03/26 07:21:00;;;;;;;17.62;10.55;;;;;;;11.12;65.03;101737.19;1627585;86;21159;-77
2022/03/26 07:23:25;;;;;;;20.27;11.53;;;;;;;11.01;65.12;101743.78;1618836;86;21790;-77
2022/03/26 07:25:51;;;;;;;18.90;11.43;;;;;;;10.86;64.98;101731.79;1614224;86;21070;-77
2022/03/26 07:28:18;;;;;;;18.48;11.30;;;;;;;10.72;65.08;101754.06;1620336;86;21371;-78
2022/03/26 07:30:45;;;;;;;20.25;10.82;;;;;;;10.59;65.20;101745.19;1631253;86;21493;-77
2022/03/26 07:33:11;;;;;;;25.37;11.65;;;;;;;10.52;65.38;101747.09;1638258;86;21069;-77
2022/03/26 07:35:38;;;;;;;18.70;10.98;;;;;;;10.46;65.55;101745.98;1626481;86;21761;-77
2022/03/26 07:38:06;;;;;;;21.37;11.78;;;;;;;10.49;65.71;101738.23;1624280;86;38083;-77
2022/03/26 07:40:33;;;;;;;19.12;12.35;;;;;;;10.55;65.79;101752.06;1624477;86;21111;-78
2022/03/26 07:43:00;;;;;;;15.58;10.50;;;;;;;10.62;65.77;101747.53;1624601;87;21629;-77
2022/03/26 07:45:26;;;;;;;17.57;11.12;;;;;;;10.70;65.62;101750.05;1611020;86;21116;-78
2022/03/26 07:47:53;;;;;;;13.70;9.60;;;;;;;10.74;65.40;101750.19;1609683;86;22589;-78
2022/03/26 07:50:20;;;;;;;18.17;9.38;;;;;;;10.72;65.19;101751.44;1597279;88;21107;-77
2022/03/26 07:52:46;;;;;;;15.25;8.83;;;;;;;10.72;65.13;101747.48;1627521;86;21034;-77
2022/03/26 07:55:13;;;;;;;16.50;9.75;;;;;;;10.72;65.10;101753.14;1599572;88;21051;-77
2022/03/26 07:57:40;;;;;;;17.32;9.60;;;;;;;10.65;64.94;101747.64;1624505;86;21118;-77
2022/03/26 08:00:09;;;;;;;20.48;10.28;;;;;;;10.69;64.89;101752.19;1637466;86;22380;-77
2022/03/26 08:02:36;;;;;;;15.40;9.53;;;;;;;10.69;65.07;101765.35;1624132;86;21135;-77
2022/03/26 08:05:03;;;;;;;15.23;9.85;;;;;;;10.73;64.97;101765.48;1636183;86;21069;-77
2022/03/26 08:07:30;;;;;;;17.92;10.65;;;;;;;10.71;64.79;101765.42;1623612;86;21035;-78
2022/03/26 08:09:57;;;;;;;16.65;10.40;;;;;;;10.70;64.77;101768.91;1619817;86;21130;-77
2022/03/26 08:12:23;;;;;;;24.32;9.73;;;;;;;10.79;64.91;101764.41;1632237;86;21753;-78
2022/03/26 08:14:51;;;;;;;16.93;8.75;;;;;;;10.95;64.85;101774.73;1636279;86;21104;-78
2022/03/26 08:17:17;;;;;;;13.35;7.80;;;;;;;11.06;64.51;101768.58;1602460;88;21165;-77
2022/03/26 08:19:45;;;;;;;18.17;8.65;;;;;;;11.13;64.23;101770.62;1640086;86;21172;-77
2022/03/26 08:22:12;;;;;;;15.75;8.50;;;;;;;11.14;64.16;101760.97;1629583;86;21137;-77
2022/03/26 08:24:38;;;;;;;13.90;8.15;;;;;;;11.14;63.92;101775.03;1651506;84;21817;-77
2022/03/26 08:27:05;;;;;;;14.55;8.25;;;;;;;11.12;63.82;101783.73;1637884;86;21645;-77
2022/03/26 08:29:32;;;;;;;15.23;7.70;;;;;;;11.06;63.61;101780.44;1641210;86;21106;-76
2022/03/26 08:32:02;;;;;;;14.68;7.95;;;;;;;11.07;63.74;101778.27;1654037;85;21080;-77
2022/03/26 08:34:27;;;;;;;11.48;7.53;;;;;;;11.21;63.62;101797.27;1641767;86;21343;-77
2022/03/26 08:36:53;;;;;;;13.25;7.20;;;;;;;11.18;63.02;101789.23;1637810;86;21759;-78
2022/03/26 08:39:20;;;;;;;14.10;7.00;;;;;;;11.16;62.97;101788.28;1637787;86;21069;-77
2022/03/26 08:41:47;;;;;;;12.82;6.37;;;;;;;11.18;62.79;101795.39;1619737;86;21128;-77
2022/03/26 08:44:14;;;;;;;15.93;6.58;;;;;;;11.21;62.67;101798.59;1636139;86;21621;-77
2022/03/26 08:46:40;;;;;;;12.30;6.22;;;;;;;11.27;62.66;101805.41;1629403;86;21072;-77
2022/03/26 08:49:07;;;;;;;10.68;5.67;;;;;;;11.29;62.35;101809.00;1637682;86;21966;-78
2022/03/26 08:51:34;;;;;;;11.95;6.00;;;;;;;11.30;61.96;101806.86;1630962;86;21116;-77
2022/03/26 08:54:01;;;;;;;13.58;6.83;;;;;;;11.39;62.09;101815.52;1638278;86;21076;-77
2022/03/26 08:56:28;;;;;;;14.73;8.88;;;;;;;11.46;61.57;101813.17;1622616;86;21266;-77
2022/03/26 08:58:55;;;;;;;9.88;5.83;;;;;;;11.50;61.31;101818.58;1628784;86;21073;-77
2022/03/26 09:01:21;;;;;;;10.03;5.10;;;;;;;11.58;60.62;101835.58;1626499;86;22625;-76
2022/03/26 09:03:50;;;;;;;10.10;5.10;;;;;;;11.56;60.45;101834.23;1643499;86;21081;-76
2022/03/26 09:06:17;;;;;;;11.80;4.90;;;;;;;11.65;60.72;101833.23;1648650;86;21085;-77
2022/03/26 09:08:44;;;;;;;7.75;4.97;;;;;;;11.62;59.71;101823.02;1642062;86;21101;-77
2022/03/26 09:11:13;;;;;;;9.50;5.28;;;;;;;11.44;59.71;101838.58;1639434;86;21104;-77
2022/03/26 09:13:40;;;;;;;8.28;4.58;;;;;;;11.42;59.84;101852.56;1638157;87;22226;-78
2022/03/26 09:16:07;;;;;;;9.60;4.90;;;;;;;11.42;59.39;101835.00;1638588;87;21085;-78
2022/03/26 09:18:33;;;;;;;7.95;4.65;;;;;;;11.47;59.75;101841.35;1635883;87;21064;-77
2022/03/26 09:21:00;;;;;;;11.08;5.65;;;;;;;11.50;59.58;101819.90;1637649;87;21143;-77
2022/03/26 09:23:27;;;;;;;10.38;5.00;;;;;;;11.56;59.50;101831.59;1634880;87;21139;-77
2022/03/26 09:25:53;;;;;;;10.53;4.62;;;;;;;11.58;59.34;101850.08;1636769;87;21783;-77
2022/03/26 09:28:20;;;;;;;10.93;5.00;;;;;;;11.62;59.36;101837.52;1638147;87;21556;-77
2022/03/26 09:30:47;;;;;;;10.72;4.17;;;;;;;11.75;59.42;101843.73;1635181;87;21045;-77
2022/03/26 09:33:16;;;;;;;8.93;4.42;;;;;;;11.98;59.47;101852.53;1637740;86;21750;-77
2022/03/26 09:35:43;;;;;;;10.18;4.28;;;;;;;12.15;58.69;101854.47;1643041;86;21092;-77
2022/03/26 09:38:10;;;;;;;8.33;3.95;;;;;;;12.15;57.69;101852.25;1635832;86;21746;-78
2022/03/26 09:40:36;;;;;;;9.63;3.95;;;;;;;12.02;57.57;101855.75;1639290;85;21482;-77
2022/03/26 09:43:03;;;;;;;6.70;2.98;;;;;;;12.04;57.55;101855.38;1645787;86;21080;-77
2022/03/26 09:45:30;;;;;;;11.83;4.03;;;;;;;12.11;57.08;101860.48;1639441;86;21281;-78
2022/03/26 09:47:57;;;;;;;7.80;4.28;;;;;;;12.15;57.07;101861.06;1645790;85;21364;-77
2022/03/26 09:50:23;;;;;;;9.18;3.87;;;;;;;12.30;57.07;101863.79;1651066;85;21776;-76
2022/03/26 09:52:50;;;;;;;8.53;3.30;;;;;;;12.55;57.07;101854.98;1648377;85;21072;-78
2022/03/26 09:55:19;;;;;;;10.00;3.55;;;;;;;12.75;56.39;101861.84;1649524;85;21307;-84
2022/03/26 09:57:48;;;;;;;8.55;3.12;;;;;;;12.78;55.96;101872.92;1645713;85;21140;-80
2022/03/26 10:00:15;;;;;;;8.63;3.72;;;;;;;12.68;55.69;101883.60;1645871;85;21800;-77
2022/03/26 10:02:42;;;;;;;7.50;3.45;;;;;;;12.59;55.58;101880.25;1652548;85;21775;-81
2022/03/26 10:05:12;;;;;;;8.38;3.25;;;;;;;12.50;55.63;101881.24;1646603;85;21068;-75
2022/03/26 10:07:38;;;;;;;11.65;3.90;;;;;;;12.46;55.47;101876.66;1616683;87;21052;-75
2022/03/26 10:10:05;;;;;;;14.20;4.35;;;;;;;12.38;55.46;101876.83;1641173;86;21013;-76
2022/03/26 10:12:32;;;;;;;6.25;3.30;;;;;;;12.33;55.63;101883.68;1651882;85;21128;-74
2022/03/26 10:15:07;;;;;;;10.03;2.98;;;;;;;12.42;55.23;101887.54;1637032;87;21753;-75
2022/03/26 10:17:35;;;;;;;9.95;3.02;;;;;;;12.49;54.95;101895.27;1646113;86;21049;-75
2022/03/26 10:20:09;;;;;;;11.57;3.05;;;;;;;12.35;53.93;101900.08;1645524;87;21088;-76
2022/03/26 10:22:52;;;;;;;10.28;2.47;;;;;;;12.03;52.01;101908.09;1639681;86;21174;-74
2022/03/26 10:25:21;;;;;;;10.20;2.65;;;;;;;11.78;50.70;101924.28;1642390;85;21021;-75
2022/03/26 10:27:56;;;;;;;7.67;1.98;;;;;;;11.62;48.49;101941.69;1645957;86;22467;-81
2022/03/26 10:33:22;;;;;;;12.00;1.95;;;;;;;11.48;44.79;101942.44;1616789;88;21056;-79
2022/03/26 10:36:00;;;;;;;7.83;1.57;;;;;;;11.30;44.55;101959.73;1625503;86;21093;-78
2022/03/26 10:38:30;;;;;;;11.70;1.65;;;;;;;11.15;42.38;101956.44;1595526;88;21143;-80
2022/03/26 10:41:01;;;;;;;16.23;2.20;;;;;;;10.92;42.52;101955.47;1624098;87;21850;-80
2022/03/26 10:43:28;;;;;;;9.80;2.20;;;;;;;10.61;41.72;101949.78;1574517;89;21717;-80
2022/03/26 10:45:56;;;;;;;10.53;2.22;;;;;;;10.23;42.21;101958.53;1596454;88;21083;-81
2022/03/26 10:48:27;;;;;;;4.45;1.40;;;;;;;10.00;41.78;101960.11;1627665;86;21100;-85
2022/03/26 10:50:56;;;;;;;9.18;1.60;;;;;;;9.80;41.30;101967.98;1649787;85;21088;-81
2022/03/26 10:53:22;;;;;;;7.00;1.60;;;;;;;9.70;40.87;101982.42;1640541;86;21809;-86
2022/03/26 10:55:49;;;;;;;10.63;1.47;;;;;;;9.70;41.52;101988.06;1651438;84;21093;-79
2022/03/26 10:58:16;;;;;;;8.55;1.65;;;;;;;9.72;41.86;101982.47;1643077;86;21042;-79
2022/03/26 11:00:43;;;;;;;17.45;2.12;;;;;;;9.69;41.35;101985.86;1622011;86;21182;-79
2022/03/26 11:03:13;;;;;;;8.95;1.40;;;;;;;9.53;40.06;101981.60;1624758;86;21750;-79
2022/03/26 11:05:40;;;;;;;6.08;1.60;;;;;;;9.46;39.86;101970.30;1636916;86;21771;-80
2022/03/26 11:08:07;;;;;;;2.67;1.35;;;;;;;9.45;38.68;102015.78;1641197;86;21088;-80
2022/03/26 11:10:34;;;;;;;4.60;1.47;;;;;;;9.38;36.94;101972.94;1614669;87;21046;-79
2022/03/26 11:13:03;;;;;;;2.87;1.30;;;;;;;9.36;38.61;101981.16;1618894;86;21167;-80
2022/03/26 11:15:34;;;;;;;6.47;1.52;;;;;;;9.37;38.27;101989.55;1634417;86;21602;-83
2022/03/26 11:18:48;;;;;;;17.17;2.55;;;;;;;9.41;38.29;101972.20;1632078;86;21781;-82
2022/03/26 11:21:49;;;;;;;7.25;2.00;;;;;;;9.36;38.52;101971.06;1635939;87;21080;-85